sensor_id;sensor_type;location;lat;lon;timestamp;pressure;altitude;pressure_sealevel;temperature;humidity
72285;BME280;60220;53.552;10.092;2023-02-12T00:00:47;103282.72;;;8.04;90.88
72285;BME280;60220;53.552;10.092;2023-02-12T00:03:15;103286.41;;;8.09;90.39
72285;BME280;60220;53.552;10.092;2023-02-12T00:05:41;103286.94;;;8.47;90.03
72285;BME280;60220;53.552;10.092;2023-02-12T00:08:08;103284.56;;;8.53;90.12
72285;BME280;60220;53.552;10.092;2023-02-12T00:10:39;103296.63;;;8.03;89.90
72285;BME280;60220;53.552;10.092;2023-02-12T00:13:05;103294.28;;;7.65;90.91
72285;BME280;60220;53.552;10.092;2023-02-12T00:15:33;103294.50;;;7.71;92.82
72285;BME280;60220;53.552;10.092;2023-02-12T00:17:59;103308.66;;;7.98;91.12
72285;BME280;60220;53.552;10.092;2023-02-12T00:20:25;103303.88;;;8.33;90.85
72285;BME280;60220;53.552;10.092;2023-02-12T00:22:51;103305.41;;;8.50;89.94
72285;BME280;60220;53.552;10.092;2023-02-12T00:25:18;103308.88;;;8.27;89.49
72285;BME280;60220;53.552;10.092;2023-02-12T00:27:46;103303.41;;;7.98;90.70
72285;BME280;60220;53.552;10.092;2023-02-12T00:30:13;103303.78;;;8.30;89.23
72285;BME280;60220;53.552;10.092;2023-02-12T00:32:39;103306.03;;;8.20;90.13
72285;BME280;60220;53.552;10.092;2023-02-12T00:35:06;103308.66;;;7.98;89.65
72285;BME280;60220;53.552;10.092;2023-02-12T00:37:32;103311.28;;;7.76;89.86
72285;BME280;60220;53.552;10.092;2023-02-12T00:40:00;103318.34;;;7.35;91.52
72285;BME280;60220;53.552;10.092;2023-02-12T00:42:29;103316.25;;;7.70;91.66
72285;BME280;60220;53.552;10.092;2023-02-12T00:44:57;103317.69;;;7.62;91.53
72285;BME280;60220;53.552;10.092;2023-02-12T00:47:23;103314.56;;;7.50;90.61
72285;BME280;60220;53.552;10.092;2023-02-12T00:49:49;103318.44;;;7.39;91.97
72285;BME280;60220;53.552;10.092;2023-02-12T00:52:15;103316.66;;;7.58;91.17
72285;BME280;60220;53.552;10.092;2023-02-12T00:54:43;103307.84;;;7.77;90.81
72285;BME280;60220;53.552;10.092;2023-02-12T00:57:12;103304.47;;;8.03;90.10
72285;BME280;60220;53.552;10.092;2023-02-12T00:59:41;103314.97;;;7.81;90.02
72285;BME280;60220;53.552;10.092;2023-02-12T01:02:07;103314.84;;;7.57;90.10
72285;BME280;60220;53.552;10.092;2023-02-12T01:04:33;103310.03;;;7.89;89.98
72285;BME280;60220;53.552;10.092;2023-02-12T01:06:59;103316.56;;;8.00;89.80
72285;BME280;60220;53.552;10.092;2023-02-12T01:09:25;103322.69;;;8.00;89.39
72285;BME280;60220;53.552;10.092;2023-02-12T01:11:51;103312.47;;;8.06;89.01
72285;BME280;60220;53.552;10.092;2023-02-12T01:14:17;103316.34;;;8.17;88.77
72285;BME280;60220;53.552;10.092;2023-02-12T01:16:46;103321.38;;;8.11;88.15
72285;BME280;60220;53.552;10.092;2023-02-12T01:19:13;103321.69;;;8.41;88.02
72285;BME280;60220;53.552;10.092;2023-02-12T01:21:39;103325.50;;;8.29;88.30
72285;BME280;60220;53.552;10.092;2023-02-12T01:24:05;103325.31;;;8.00;88.54
72285;BME280;60220;53.552;10.092;2023-02-12T01:26:32;103331.84;;;8.11;88.83
72285;BME280;60220;53.552;10.092;2023-02-12T01:28:59;103330.88;;;7.87;89.04
72285;BME280;60220;53.552;10.092;2023-02-12T01:31:27;103325.88;;;7.93;89.36
72285;BME280;60220;53.552;10.092;2023-02-12T01:33:56;103327.72;;;8.18;88.58
72285;BME280;60220;53.552;10.092;2023-02-12T01:36:26;103327.31;;;8.07;88.56
72285;BME280;60220;53.552;10.092;2023-02-12T01:38:53;103337.53;;;7.57;89.31
72285;BME280;60220;53.552;10.092;2023-02-12T01:41:23;103333.00;;;7.97;89.41
72285;BME280;60220;53.552;10.092;2023-02-12T01:44:11;103329.81;;;8.04;88.78
72285;BME280;60220;53.552;10.092;2023-02-12T01:46:38;103337.16;;;7.92;89.11
72285;BME280;60220;53.552;10.092;2023-02-12T01:49:09;103334.19;;;7.83;89.33
72285;BME280;60220;53.552;10.092;2023-02-12T01:51:38;103338.59;;;7.84;88.85
72285;BME280;60220;53.552;10.092;2023-02-12T01:54:07;103344.09;;;7.90;89.14
72285;BME280;60220;53.552;10.092;2023-02-12T01:56:35;103340.16;;;8.01;88.21
72285;BME280;60220;53.552;10.092;2023-02-12T01:59:04;103340.16;;;8.01;88.38
72285;BME280;60220;53.552;10.092;2023-02-12T02:01:36;103347.31;;;8.05;88.05
72285;BME280;60220;53.552;10.092;2023-02-12T02:04:06;103339.41;;;8.28;87.58
72285;BME280;60220;53.552;10.092;2023-02-12T02:06:34;103348.59;;;7.72;88.01
72285;BME280;60220;53.552;10.092;2023-02-12T02:09:02;103341.22;;;7.84;88.17
72285;BME280;60220;53.552;10.092;2023-02-12T02:11:28;103345.91;;;7.93;87.56
72285;BME280;60220;53.552;10.092;2023-02-12T02:14:12;103338.59;;;7.84;87.75
72285;BME280;60220;53.552;10.092;2023-02-12T02:17:00;103338.31;;;7.76;87.11
72285;BME280;60220;53.552;10.092;2023-02-12T02:19:55;103329.75;;;8.25;86.94
72285;BME280;60220;53.552;10.092;2023-02-12T02:22:34;103336.13;;;8.09;86.43
72285;BME280;60220;53.552;10.092;2023-02-12T02:28:26;103338.13;;;8.39;86.36
72285;BME280;60220;53.552;10.092;2023-02-12T02:30:59;103340.00;;;8.41;84.82
72285;BME280;60220;53.552;10.092;2023-02-12T02:33:36;103339.94;;;8.40;84.61
72285;BME280;60220;53.552;10.092;2023-02-12T02:36:13;103344.78;;;8.53;83.51
72285;BME280;60220;53.552;10.092;2023-02-12T02:38:43;103351.44;;;8.22;84.52
72285;BME280;60220;53.552;10.092;2023-02-12T02:41:16;103351.31;;;8.64;83.64
72285;BME280;60220;53.552;10.092;2023-02-12T02:43:47;103349.19;;;8.54;82.88
72285;BME280;60220;53.552;10.092;2023-02-12T02:46:20;103349.34;;;8.35;83.48
72285;BME280;60220;53.552;10.092;2023-02-12T02:48:49;103346.00;;;8.16;84.28
72285;BME280;60220;53.552;10.092;2023-02-12T02:51:20;103348.97;;;7.81;86.29
72285;BME280;60220;53.552;10.092;2023-02-12T02:53:53;103353.47;;;7.85;86.03
72285;BME280;60220;53.552;10.092;2023-02-12T02:56:23;103349.53;;;8.18;86.34
72285;BME280;60220;53.552;10.092;2023-02-12T02:58:52;103348.06;;;8.03;85.15
72285;BME280;60220;53.552;10.092;2023-02-12T03:04:06;103354.31;;;8.51;83.55
72285;BME280;60220;53.552;10.092;2023-02-12T03:06:38;103351.69;;;8.29;84.31
72285;BME280;60220;53.552;10.092;2023-02-12T03:09:12;103348.91;;;8.70;83.51
72285;BME280;60220;53.552;10.092;2023-02-12T03:11:40;103347.78;;;8.40;82.75
72285;BME280;60220;53.552;10.092;2023-02-12T03:14:12;103354.44;;;8.09;85.59
72285;BME280;60220;53.552;10.092;2023-02-12T03:16:45;103356.84;;;7.83;85.36
72285;BME280;60220;53.552;10.092;2023-02-12T03:19:18;103367.38;;;8.29;85.79
72285;BME280;60220;53.552;10.092;2023-02-12T03:21:49;103363.75;;;8.03;85.86
72285;BME280;60220;53.552;10.092;2023-02-12T03:24:21;103367.03;;;8.19;86.18
72285;BME280;60220;53.552;10.092;2023-02-12T03:26:53;103363.69;;;7.79;86.74
72285;BME280;60220;53.552;10.092;2023-02-12T03:29:21;103363.28;;;8.13;85.91
72285;BME280;60220;53.552;10.092;2023-02-12T03:31:55;103363.53;;;7.97;85.34
72285;BME280;60220;53.552;10.092;2023-02-12T03:34:29;103362.69;;;8.20;85.08
72285;BME280;60220;53.552;10.092;2023-02-12T03:37:03;103367.78;;;8.17;84.83
72285;BME280;60220;53.552;10.092;2023-02-12T03:39:36;103369.72;;;8.21;84.52
72285;BME280;60220;53.552;10.092;2023-02-12T03:42:11;103369.41;;;7.91;86.40
72285;BME280;60220;53.552;10.092;2023-02-12T03:44:47;103371.09;;;7.68;87.17
72285;BME280;60220;53.552;10.092;2023-02-12T03:47:22;103373.75;;;7.91;86.97
72285;BME280;60220;53.552;10.092;2023-02-12T03:49:59;103376.53;;;8.17;87.08
72285;BME280;60220;53.552;10.092;2023-02-12T03:52:27;103382.16;;;8.49;84.85
72285;BME280;60220;53.552;10.092;2023-02-12T03:54:54;103379.94;;;8.59;84.81
72285;BME280;60220;53.552;10.092;2023-02-12T03:57:21;103384.25;;;8.35;84.88
72285;BME280;60220;53.552;10.092;2023-02-12T03:59:49;103387.06;;;8.63;83.09
72285;BME280;60220;53.552;10.092;2023-02-12T04:02:17;103388.50;;;8.11;85.06
72285;BME280;60220;53.552;10.092;2023-02-12T04:04:44;103392.97;;;8.58;84.59
72285;BME280;60220;53.552;10.092;2023-02-12T04:07:12;103403.72;;;8.42;84.40
72285;BME280;60220;53.552;10.092;2023-02-12T04:09:38;103404.56;;;8.64;83.28
72285;BME280;60220;53.552;10.092;2023-02-12T04:12:14;103405.78;;;7.85;86.51
72285;BME280;60220;53.552;10.092;2023-02-12T04:14:52;103400.41;;;7.82;86.48
72285;BME280;60220;53.552;10.092;2023-02-12T04:17:25;103406.66;;;7.44;88.21
72285;BME280;60220;53.552;10.092;2023-02-12T04:20:03;103402.59;;;7.51;88.88
72285;BME280;60220;53.552;10.092;2023-02-12T04:22:43;103399.25;;;8.18;87.78
72285;BME280;60220;53.552;10.092;2023-02-12T04:25:19;103404.09;;;7.87;87.19
72285;BME280;60220;53.552;10.092;2023-02-12T04:27:56;103402.56;;;7.92;86.73
72285;BME280;60220;53.552;10.092;2023-02-12T04:30:27;103399.31;;;8.20;86.85
72285;BME280;60220;53.552;10.092;2023-02-12T04:32:57;103403.44;;;8.58;85.25
72285;BME280;60220;53.552;10.092;2023-02-12T04:35:27;103411.94;;;8.52;84.85
72285;BME280;60220;53.552;10.092;2023-02-12T04:38:02;103422.56;;;8.12;86.27
72285;BME280;60220;53.552;10.092;2023-02-12T04:40:33;103416.72;;;8.40;85.51
72285;BME280;60220;53.552;10.092;2023-02-12T04:43:00;103427.41;;;8.03;86.06
72285;BME280;60220;53.552;10.092;2023-02-12T04:45:28;103427.28;;;8.21;86.09
72285;BME280;60220;53.552;10.092;2023-02-12T04:47:56;103414.75;;;8.35;86.95
72285;BME280;60220;53.552;10.092;2023-02-12T04:50:22;103415.94;;;8.65;84.86
72285;BME280;60220;53.552;10.092;2023-02-12T04:52:51;103419.72;;;8.29;85.46
72285;BME280;60220;53.552;10.092;2023-02-12T04:55:18;103418.41;;;8.17;85.49
72285;BME280;60220;53.552;10.092;2023-02-12T04:57:44;103413.56;;;8.27;86.69
72285;BME280;60220;53.552;10.092;2023-02-12T05:00:12;103422.16;;;8.24;85.64
72285;BME280;60220;53.552;10.092;2023-02-12T05:02:38;103418.69;;;8.46;86.53
72285;BME280;60220;53.552;10.092;2023-02-12T05:05:05;103420.19;;;7.96;85.46
72285;BME280;60220;53.552;10.092;2023-02-12T05:07:32;103419.97;;;8.57;86.07
72285;BME280;60220;53.552;10.092;2023-02-12T05:10:00;103415.28;;;8.48;83.68
72285;BME280;60220;53.552;10.092;2023-02-12T05:12:27;103422.28;;;7.84;86.99
72285;BME280;60220;53.552;10.092;2023-02-12T05:14:53;103420.94;;;8.59;84.51
72285;BME280;60220;53.552;10.092;2023-02-12T05:17:21;103416.84;;;8.00;85.97
72285;BME280;60220;53.552;10.092;2023-02-12T05:19:47;103418.22;;;8.13;86.31
72285;BME280;60220;53.552;10.092;2023-02-12T05:22:13;103419.22;;;7.94;87.12
72285;BME280;60220;53.552;10.092;2023-02-12T05:24:42;103414.38;;;8.48;87.84
72285;BME280;60220;53.552;10.092;2023-02-12T05:27:08;103419.03;;;8.55;86.86
72285;BME280;60220;53.552;10.092;2023-02-12T05:29:34;103431.03;;;7.85;87.53
72285;BME280;60220;53.552;10.092;2023-02-12T05:32:01;103423.28;;;8.75;86.33
72285;BME280;60220;53.552;10.092;2023-02-12T05:34:27;103421.38;;;7.21;89.66
72285;BME280;60220;53.552;10.092;2023-02-12T05:36:53;103419.03;;;7.69;91.44
72285;BME280;60220;53.552;10.092;2023-02-12T05:39:19;103419.34;;;8.19;90.22
72285;BME280;60220;53.552;10.092;2023-02-12T05:41:45;103419.88;;;8.32;88.95
72285;BME280;60220;53.552;10.092;2023-02-12T05:44:11;103425.34;;;7.13;91.02
72285;BME280;60220;53.552;10.092;2023-02-12T05:46:41;103433.53;;;7.21;92.80
72285;BME280;60220;53.552;10.092;2023-02-12T05:49:07;103431.63;;;7.38;94.49
72285;BME280;60220;53.552;10.092;2023-02-12T05:51:34;103443.63;;;8.15;92.12
72285;BME280;60220;53.552;10.092;2023-02-12T05:54:04;103439.84;;;8.52;89.95
72285;BME280;60220;53.552;10.092;2023-02-12T05:56:33;103436.47;;;9.00;86.89
72285;BME280;60220;53.552;10.092;2023-02-12T05:59:02;103437.34;;;9.01;85.67
72285;BME280;60220;53.552;10.092;2023-02-12T06:01:30;103433.53;;;9.40;83.47
72285;BME280;60220;53.552;10.092;2023-02-12T06:03:58;103437.56;;;8.83;84.46
72285;BME280;60220;53.552;10.092;2023-02-12T06:06:27;103438.84;;;8.94;84.75
72285;BME280;60220;53.552;10.092;2023-02-12T06:08:56;103433.84;;;9.00;85.21
72285;BME280;60220;53.552;10.092;2023-02-12T06:11:23;103442.91;;;9.10;84.97
72285;BME280;60220;53.552;10.092;2023-02-12T06:13:49;103438.84;;;8.71;85.19
72285;BME280;60220;53.552;10.092;2023-02-12T06:16:17;103443.91;;;8.66;86.18
72285;BME280;60220;53.552;10.092;2023-02-12T06:18:43;103443.78;;;8.87;86.06
72285;BME280;60220;53.552;10.092;2023-02-12T06:21:10;103442.09;;;9.62;83.89
72285;BME280;60220;53.552;10.092;2023-02-12T06:23:36;103447.00;;;8.56;84.45
72285;BME280;60220;53.552;10.092;2023-02-12T06:26:05;103452.13;;;8.10;88.34
72285;BME280;60220;53.552;10.092;2023-02-12T06:28:34;103449.47;;;7.27;91.21
72285;BME280;60220;53.552;10.092;2023-02-12T06:31:00;103450.44;;;7.10;92.58
72285;BME280;60220;53.552;10.092;2023-02-12T06:33:27;103441.34;;;7.40;94.93
72285;BME280;60220;53.552;10.092;2023-02-12T06:35:54;103445.06;;;7.87;93.88
72285;BME280;60220;53.552;10.092;2023-02-12T06:38:20;103455.47;;;7.85;92.65
72285;BME280;60220;53.552;10.092;2023-02-12T06:40:46;103454.75;;;7.89;91.64
72285;BME280;60220;53.552;10.092;2023-02-12T06:43:12;103454.09;;;7.74;91.54
72285;BME280;60220;53.552;10.092;2023-02-12T06:45:40;103455.47;;;8.07;91.31
72285;BME280;60220;53.552;10.092;2023-02-12T06:48:08;103462.66;;;8.11;91.30
72285;BME280;60220;53.552;10.092;2023-02-12T06:50:37;103462.72;;;8.56;89.24
72285;BME280;60220;53.552;10.092;2023-02-12T06:53:08;103472.22;;;8.54;89.31
72285;BME280;60220;53.552;10.092;2023-02-12T06:55:35;103479.63;;;8.42;89.69
72285;BME280;60220;53.552;10.092;2023-02-12T06:58:03;103477.56;;;8.35;88.50
72285;BME280;60220;53.552;10.092;2023-02-12T07:00:30;103482.16;;;8.85;88.39
72285;BME280;60220;53.552;10.092;2023-02-12T07:02:56;103487.50;;;8.43;87.99
72285;BME280;60220;53.552;10.092;2023-02-12T07:05:23;103493.88;;;8.50;88.21
72285;BME280;60220;53.552;10.092;2023-02-12T07:07:50;103489.69;;;9.23;86.99
72285;BME280;60220;53.552;10.092;2023-02-12T07:10:16;103491.63;;;7.95;87.09
72285;BME280;60220;53.552;10.092;2023-02-12T07:12:46;103493.38;;;7.55;92.25
72285;BME280;60220;53.552;10.092;2023-02-12T07:15:13;103490.38;;;7.26;93.89
72285;BME280;60220;53.552;10.092;2023-02-12T07:17:41;103498.34;;;7.29;93.83
72285;BME280;60220;53.552;10.092;2023-02-12T07:20:10;103494.84;;;6.90;96.07
72285;BME280;60220;53.552;10.092;2023-02-12T07:22:38;103498.53;;;7.53;97.01
72285;BME280;60220;53.552;10.092;2023-02-12T07:25:10;103504.09;;;8.02;95.72
72285;BME280;60220;53.552;10.092;2023-02-12T07:27:36;103507.13;;;7.51;95.17
72285;BME280;60220;53.552;10.092;2023-02-12T07:30:09;103512.59;;;7.76;94.24
72285;BME280;60220;53.552;10.092;2023-02-12T07:32:35;103520.84;;;7.85;93.41
72285;BME280;60220;53.552;10.092;2023-02-12T07:35:01;103511.84;;;7.99;93.03
72285;BME280;60220;53.552;10.092;2023-02-12T07:37:27;103518.06;;;8.23;91.48
72285;BME280;60220;53.552;10.092;2023-02-12T07:39:55;103514.94;;;8.53;90.71
72285;BME280;60220;53.552;10.092;2023-02-12T07:42:24;103519.16;;;8.29;91.09
72285;BME280;60220;53.552;10.092;2023-02-12T07:44:53;103521.94;;;8.32;91.16
72285;BME280;60220;53.552;10.092;2023-02-12T07:47:20;103506.13;;;9.19;88.77
72285;BME280;60220;53.552;10.092;2023-02-12T07:49:46;103511.03;;;8.86;87.26
72285;BME280;60220;53.552;10.092;2023-02-12T07:52:12;103517.94;;;9.08;87.67
72285;BME280;60220;53.552;10.092;2023-02-12T07:54:38;103520.66;;;8.65;87.99
72285;BME280;60220;53.552;10.092;2023-02-12T07:57:04;103512.09;;;8.26;90.36
72285;BME280;60220;53.552;10.092;2023-02-12T07:59:30;103523.38;;;8.04;90.70
72285;BME280;60220;53.552;10.092;2023-02-12T08:02:00;103516.13;;;8.39;90.53
72285;BME280;60220;53.552;10.092;2023-02-12T08:04:30;103524.16;;;8.43;90.66
72285;BME280;60220;53.552;10.092;2023-02-12T08:06:56;103521.25;;;8.36;90.13
72285;BME280;60220;53.552;10.092;2023-02-12T08:09:27;103526.00;;;8.46;90.71
72285;BME280;60220;53.552;10.092;2023-02-12T08:11:56;103528.25;;;8.37;91.68
72285;BME280;60220;53.552;10.092;2023-02-12T08:14:26;103523.75;;;7.72;92.68
72285;BME280;60220;53.552;10.092;2023-02-12T08:16:57;103527.84;;;7.86;92.93
72285;BME280;60220;53.552;10.092;2023-02-12T08:19:25;103526.06;;;8.06;93.44
72285;BME280;60220;53.552;10.092;2023-02-12T08:21:54;103526.81;;;8.03;92.23
72285;BME280;60220;53.552;10.092;2023-02-12T08:24:27;103539.69;;;7.78;92.60
72285;BME280;60220;53.552;10.092;2023-02-12T08:26:59;103538.88;;;8.00;93.25
72285;BME280;60220;53.552;10.092;2023-02-12T08:29:28;103536.06;;;7.74;93.31
72285;BME280;60220;53.552;10.092;2023-02-12T08:31:59;103536.94;;;8.36;92.66
72285;BME280;60220;53.552;10.092;2023-02-12T08:34:29;103536.59;;;8.49;91.86
72285;BME280;60220;53.552;10.092;2023-02-12T08:36:57;103549.56;;;8.46;91.83
72285;BME280;60220;53.552;10.092;2023-02-12T08:39:25;103545.34;;;8.49;90.80
72285;BME280;60220;53.552;10.092;2023-02-12T08:41:53;103546.50;;;8.56;90.90
72285;BME280;60220;53.552;10.092;2023-02-12T08:44:19;103553.69;;;8.84;89.85
72285;BME280;60220;53.552;10.092;2023-02-12T08:46:47;103547.84;;;9.13;88.66
72285;BME280;60220;53.552;10.092;2023-02-12T08:49:16;103554.47;;;8.81;88.50
72285;BME280;60220;53.552;10.092;2023-02-12T08:51:45;103556.75;;;9.18;88.54
72285;BME280;60220;53.552;10.092;2023-02-12T08:54:16;103563.13;;;8.36;88.48
72285;BME280;60220;53.552;10.092;2023-02-12T08:56:42;103566.16;;;8.46;88.95
72285;BME280;60220;53.552;10.092;2023-02-12T08:59:11;103561.78;;;8.68;90.08
72285;BME280;60220;53.552;10.092;2023-02-12T09:01:37;103567.19;;;8.72;89.79
72285;BME280;60220;53.552;10.092;2023-02-12T09:04:06;103572.09;;;8.85;90.29
72285;BME280;60220;53.552;10.092;2023-02-12T09:06:33;103573.41;;;8.12;89.99
72285;BME280;60220;53.552;10.092;2023-02-12T09:09:00;103575.69;;;8.44;90.67
72285;BME280;60220;53.552;10.092;2023-02-12T09:11:28;103572.06;;;8.63;90.22
72285;BME280;60220;53.552;10.092;2023-02-12T09:13:56;103568.56;;;8.62;89.88
72285;BME280;60220;53.552;10.092;2023-02-12T09:16:23;103569.06;;;8.75;88.79
72285;BME280;60220;53.552;10.092;2023-02-12T09:18:51;103571.06;;;8.82;89.38
72285;BME280;60220;53.552;10.092;2023-02-12T09:21:17;103572.44;;;8.94;88.75
72285;BME280;60220;53.552;10.092;2023-02-12T09:23:46;103567.47;;;9.24;87.74
72285;BME280;60220;53.552;10.092;2023-02-12T09:26:14;103577.91;;;8.56;89.23
72285;BME280;60220;53.552;10.092;2023-02-12T09:28:50;103563.91;;;9.22;88.43
72285;BME280;60220;53.552;10.092;2023-02-12T09:31:18;103567.56;;;9.26;86.62
72285;BME280;60220;53.552;10.092;2023-02-12T09:33:47;103572.06;;;9.30;87.07
72285;BME280;60220;53.552;10.092;2023-02-12T09:36:16;103573.16;;;8.68;88.00
72285;BME280;60220;53.552;10.092;2023-02-12T09:38:43;103581.59;;;8.19;90.88
72285;BME280;60220;53.552;10.092;2023-02-12T09:41:22;103585.66;;;8.13;90.97
72285;BME280;60220;53.552;10.092;2023-02-12T09:43:52;103592.75;;;8.57;91.35
72285;BME280;60220;53.552;10.092;2023-02-12T09:46:27;103585.97;;;8.62;90.36
72285;BME280;60220;53.552;10.092;2023-02-12T09:49:04;103595.00;;;8.48;90.19
72285;BME280;60220;53.552;10.092;2023-02-12T09:51:35;103591.25;;;8.84;89.63
72285;BME280;60220;53.552;10.092;2023-02-12T09:54:06;103583.63;;;9.13;89.60
72285;BME280;60220;53.552;10.092;2023-02-12T09:56:36;103590.16;;;9.46;87.01
72285;BME280;60220;53.552;10.092;2023-02-12T09:59:05;103597.66;;;8.91;87.11
72285;BME280;60220;53.552;10.092;2023-02-12T10:01:32;103595.97;;;8.93;87.49
72285;BME280;60220;53.552;10.092;2023-02-12T10:04:01;103596.84;;;8.93;88.96
72285;BME280;60220;53.552;10.092;2023-02-12T10:06:33;103602.78;;;8.67;89.09
72285;BME280;60220;53.552;10.092;2023-02-12T10:09:28;103604.09;;;8.78;88.85
72285;BME280;60220;53.552;10.092;2023-02-12T10:12:03;103604.59;;;9.13;88.62
72285;BME280;60220;53.552;10.092;2023-02-12T10:15:06;103607.81;;;9.05;88.29
72285;BME280;60220;53.552;10.092;2023-02-12T10:17:41;103610.59;;;8.45;89.56
72285;BME280;60220;53.552;10.092;2023-02-12T10:20:30;103613.34;;;8.48;90.20
72285;BME280;60220;53.552;10.092;2023-02-12T10:23:08;103607.53;;;8.55;91.33
72285;BME280;60220;53.552;10.092;2023-02-12T10:25:44;103610.44;;;8.62;91.44
72285;BME280;60220;53.552;10.092;2023-02-12T10:28:15;103610.72;;;8.48;90.10
72285;BME280;60220;53.552;10.092;2023-02-12T10:30:47;103602.94;;;8.09;91.51
72285;BME280;60220;53.552;10.092;2023-02-12T10:33:19;103609.63;;;8.43;92.44
72285;BME280;60220;53.552;10.092;2023-02-12T10:35:50;103605.84;;;8.57;91.69
72285;BME280;60220;53.552;10.092;2023-02-12T10:38:25;103604.81;;;8.74;91.04
72285;BME280;60220;53.552;10.092;2023-02-12T10:40:52;103603.75;;;9.14;89.98
72285;BME280;60220;53.552;10.092;2023-02-12T10:43:22;103599.84;;;8.80;89.93
72285;BME280;60220;53.552;10.092;2023-02-12T10:45:49;103603.22;;;8.78;89.06
72285;BME280;60220;53.552;10.092;2023-02-12T10:48:18;103600.09;;;8.24;91.41
72285;BME280;60220;53.552;10.092;2023-02-12T10:50:57;103607.28;;;8.49;92.32
72285;BME280;60220;53.552;10.092;2023-02-12T10:53:35;103600.50;;;8.54;90.84
72285;BME280;60220;53.552;10.092;2023-02-12T10:56:13;103595.66;;;9.07;90.81
72285;BME280;60220;53.552;10.092;2023-02-12T10:58:50;103592.44;;;8.70;89.79
72285;BME280;60220;53.552;10.092;2023-02-12T11:01:22;103596.50;;;8.84;90.66
72285;BME280;60220;53.552;10.092;2023-02-12T11:03:50;103592.97;;;8.84;90.06
72285;BME280;60220;53.552;10.092;2023-02-12T11:06:19;103591.13;;;9.26;89.66
72285;BME280;60220;53.552;10.092;2023-02-12T11:08:46;103588.31;;;8.77;89.89
72285;BME280;60220;53.552;10.092;2023-02-12T11:11:15;103590.84;;;8.53;90.25
72285;BME280;60220;53.552;10.092;2023-02-12T11:13:44;103589.13;;;8.96;89.92
72285;BME280;60220;53.552;10.092;2023-02-12T11:16:13;103586.31;;;8.49;89.81
72285;BME280;60220;53.552;10.092;2023-02-12T11:18:44;103579.66;;;8.57;90.74
72285;BME280;60220;53.552;10.092;2023-02-12T11:21:12;103587.03;;;8.45;91.30
72285;BME280;60220;53.552;10.092;2023-02-12T11:23:40;103586.41;;;8.73;91.11
72285;BME280;60220;53.552;10.092;2023-02-12T11:26:23;103579.34;;;8.92;90.38
72285;BME280;60220;53.552;10.092;2023-02-12T11:28:52;103580.75;;;8.62;90.62
72285;BME280;60220;53.552;10.092;2023-02-12T11:31:21;103569.44;;;9.07;89.26
72285;BME280;60220;53.552;10.092;2023-02-12T11:34:05;103580.78;;;8.84;88.83
72285;BME280;60220;53.552;10.092;2023-02-12T11:36:34;103578.13;;;8.62;89.76
72285;BME280;60220;53.552;10.092;2023-02-12T11:39:02;103572.19;;;8.25;90.90
72285;BME280;60220;53.552;10.092;2023-02-12T11:41:32;103571.59;;;8.73;91.77
72285;BME280;60220;53.552;10.092;2023-02-12T11:44:08;103576.53;;;8.88;89.82
72285;BME280;60220;53.552;10.092;2023-02-12T11:46:36;103568.22;;;8.98;89.50
72285;BME280;60220;53.552;10.092;2023-02-12T11:49:05;103568.94;;;9.16;89.16
72285;BME280;60220;53.552;10.092;2023-02-12T11:51:35;103570.41;;;8.87;88.73
72285;BME280;60220;53.552;10.092;2023-02-12T11:54:03;103572.31;;;8.69;90.07
72285;BME280;60220;53.552;10.092;2023-02-12T11:56:41;103567.06;;;8.69;90.78
72285;BME280;60220;53.552;10.092;2023-02-12T11:59:15;103563.31;;;8.62;91.83
72285;BME280;60220;53.552;10.092;2023-02-12T12:01:43;103567.56;;;9.03;90.68
72285;BME280;60220;53.552;10.092;2023-02-12T12:04:14;103559.97;;;9.33;90.02
72285;BME280;60220;53.552;10.092;2023-02-12T12:06:45;103564.13;;;9.52;88.78
72285;BME280;60220;53.552;10.092;2023-02-12T12:09:15;103567.31;;;9.20;89.86
72285;BME280;60220;53.552;10.092;2023-02-12T12:11:52;103562.25;;;9.02;90.28
72285;BME280;60220;53.552;10.092;2023-02-12T12:14:27;103563.75;;;9.41;89.52
72285;BME280;60220;53.552;10.092;2023-02-12T12:16:58;103558.53;;;8.95;88.58
72285;BME280;60220;53.552;10.092;2023-02-12T12:19:53;103568.25;;;8.55;90.57
72285;BME280;60220;53.552;10.092;2023-02-12T12:22:35;103568.97;;;8.51;90.46
72285;BME280;60220;53.552;10.092;2023-02-12T12:25:09;103560.31;;;8.96;90.84
72285;BME280;60220;53.552;10.092;2023-02-12T12:27:43;103550.38;;;9.12;90.49
72285;BME280;60220;53.552;10.092;2023-02-12T12:30:39;103553.97;;;9.14;89.36
72285;BME280;60220;53.552;10.092;2023-02-12T12:33:14;103552.31;;;8.93;90.24
72285;BME280;60220;53.552;10.092;2023-02-12T12:35:46;103555.78;;;8.70;90.50
72285;BME280;60220;53.552;10.092;2023-02-12T12:38:27;103552.31;;;8.49;92.58
72285;BME280;60220;53.552;10.092;2023-02-12T12:41:05;103546.59;;;8.59;93.11
72285;BME280;60220;53.552;10.092;2023-02-12T12:43:44;103539.41;;;9.22;92.42
72285;BME280;60220;53.552;10.092;2023-02-12T12:46:33;103534.53;;;9.55;89.34
72285;BME280;60220;53.552;10.092;2023-02-12T12:49:24;103534.34;;;9.74;87.92
72285;BME280;60220;53.552;10.092;2023-02-12T12:52:05;103527.09;;;9.43;87.79
72285;BME280;60220;53.552;10.092;2023-02-12T12:57:36;103517.81;;;9.51;90.34
72285;BME280;60220;53.552;10.092;2023-02-12T13:00:18;103513.34;;;9.25;89.93
72285;BME280;60220;53.552;10.092;2023-02-12T13:06:01;103511.91;;;10.09;87.16
72285;BME280;60220;53.552;10.092;2023-02-12T13:08:42;103509.13;;;10.04;87.20
72285;BME280;60220;53.552;10.092;2023-02-12T13:11:24;103516.41;;;10.38;85.36
72285;BME280;60220;53.552;10.092;2023-02-12T13:14:04;103504.19;;;10.13;85.69
72285;BME280;60220;53.552;10.092;2023-02-12T13:16:36;103508.38;;;9.56;86.32
72285;BME280;60220;53.552;10.092;2023-02-12T13:19:13;103505.63;;;9.78;86.26